Barnaul, Russia
Current Conditions -  °F | °C
As of 2:00 AM on Friday 31 Oct 2014 (Local Time) from UNBB Reporting Station
Broken Clouds Broken Clouds  
Wind Chill: 21°   Ceiling: 1300
Heat Index: 32°   Visibility: 6mi
Dew Point: 30°   Wind: 16mph
Humidity: 93%   Direction: 240°WSW
Pressure: 30.27"   Gusts: NA
Location:  53.36°N, 83.75°E
Report Text: UNBB 301900Z 24007MPS 9999 BKN013 00/M01 Q1025 NOSIG RMKQFE746/0995 24590531
Loading
Personal Weather Stations






























Interactive Weather Map
Tropical Storm Tracking
New forecast layout! Learn more

10-Day Weather Forecast

Advertisements
Track Severe Weather on mobile